Time;durP1;ratioP1;P1;durP2;ratioP2;P2;SDS_P1;SDS_P2;PMS_P1;PMS_P2;Temp;Humidity;BMP_temperature;BMP_pressure;BME280_temperature;BME280_humidity;BME280_pressure;Samples;Min_cycle;Max_cycle;Signal;HPM_P1;HPM_P2
2023/03/14 00:00:36;;;;;;;7.60;3.80;;;;;;;0.22;66.15;100669.41;4947170;28;20544;-66
2023/03/14 00:03:09;;;;;;;14.13;4.88;;;;;;;0.28;66.86;100676.44;4946924;28;20100;-63
2023/03/14 00:05:40;;;;;;;22.02;5.00;;;;;;;0.29;65.94;100673.91;4945776;28;20059;-65
2023/03/14 00:08:12;;;;;;;12.27;5.07;;;;;;;0.32;66.28;100693.69;4948350;28;20056;-62
2023/03/14 00:10:43;;;;;;;12.43;4.63;;;;;;;0.45;66.67;100689.81;4946962;27;20044;-65
2023/03/14 00:13:15;;;;;;;14.38;4.40;;;;;;;0.46;66.27;100686.44;4947991;27;20075;-63
2023/03/14 00:15:46;;;;;;;14.27;4.82;;;;;;;0.47;65.96;100694.19;4947240;27;20520;-65
2023/03/14 00:18:20;;;;;;;12.82;4.50;;;;;;;0.50;66.92;100691.72;4947127;28;20054;-63
2023/03/14 00:20:52;;;;;;;11.50;4.20;;;;;;;0.19;65.72;100648.75;4939632;28;20071;-64
2023/03/14 00:23:23;;;;;;;15.07;5.68;;;;;;;0.23;66.65;100668.59;4947263;28;20051;-65
2023/03/14 00:25:54;;;;;;;13.85;4.97;;;;;;;0.62;66.58;100724.63;4947483;27;20051;-65
2023/03/14 00:28:25;;;;;;;16.17;4.07;;;;;;;0.70;66.60;100723.19;4947749;28;20048;-62
2023/03/14 00:30:58;;;;;;;11.57;4.78;;;;;;;0.84;66.19;100732.19;4946994;27;20048;-65
2023/03/14 00:33:32;;;;;;;16.98;3.95;;;;;;;1.05;65.21;100715.69;4963120;27;21048;-67
2023/03/14 00:36:05;;;;;;;12.80;4.72;;;;;;;1.15;65.48;100720.25;4954800;27;20098;-63
2023/03/14 00:38:37;;;;;;;15.25;4.60;;;;;;;1.20;64.79;100735.81;4965507;27;20047;-64
2023/03/14 00:41:10;;;;;;;17.67;5.20;;;;;;;1.27;64.83;100728.34;4965356;27;20055;-65
2023/03/14 00:43:42;;;;;;;12.13;4.28;;;;;;;1.18;64.45;100738.34;4957623;27;20072;-67
2023/03/14 00:46:13;;;;;;;12.20;4.50;;;;;;;1.07;65.12;100732.00;4965801;27;20779;-66
2023/03/14 00:48:48;;;;;;;18.83;4.80;;;;;;;0.99;65.40;100730.91;4964498;27;20134;-63
2023/03/14 00:51:19;;;;;;;10.82;4.53;;;;;;;0.99;66.28;100741.22;4965518;27;20039;-65
2023/03/14 00:53:51;;;;;;;20.58;5.22;;;;;;;1.00;65.29;100750.66;4963683;27;20048;-64
2023/03/14 00:56:25;;;;;;;12.38;4.85;;;;;;;1.04;66.06;100744.78;4957905;27;20074;-64
2023/03/14 00:58:57;;;;;;;16.15;4.20;;;;;;;1.05;65.65;100767.16;4955034;27;20070;-61
2023/03/14 01:01:28;;;;;;;10.70;4.95;;;;;;;0.94;65.98;100732.47;4956510;27;20043;-66
2023/03/14 01:04:01;;;;;;;18.17;4.80;;;;;;;1.22;66.60;100760.81;4950210;28;22036;-65
2023/03/14 01:06:33;;;;;;;15.80;4.95;;;;;;;1.36;65.36;100768.03;4938088;28;20067;-66
2023/03/14 01:09:04;;;;;;;13.25;5.05;;;;;;;1.38;65.44;100771.53;4948515;28;20092;-63
2023/03/14 01:11:38;;;;;;;12.23;5.03;;;;;;;1.32;65.75;100777.34;4949133;27;20051;-63
2023/03/14 01:14:09;;;;;;;18.95;4.75;;;;;;;1.38;64.03;100797.28;4970363;28;20075;-63
2023/03/14 01:16:41;;;;;;;16.88;5.25;;;;;;;1.40;64.35;100798.19;4944203;28;20049;-63
2023/03/14 01:19:15;;;;;;;14.43;4.72;;;;;;;1.57;62.78;100809.84;4949245;28;20143;-64
2023/03/14 01:21:46;;;;;;;15.68;5.05;;;;;;;1.48;62.83;100799.31;4948621;28;20086;-66
2023/03/14 01:24:18;;;;;;;14.07;5.15;;;;;;;1.56;63.49;100812.41;4948314;28;20058;-62
2023/03/14 01:26:50;;;;;;;14.73;4.82;;;;;;;1.42;63.00;100817.13;4948172;28;20047;-68
2023/03/14 01:29:22;;;;;;;17.40;4.40;;;;;;;1.28;64.50;100833.06;4943153;28;20112;-64
2023/03/14 01:31:54;;;;;;;17.63;5.22;;;;;;;1.34;64.45;100839.22;4958523;27;20051;-64
2023/03/14 01:34:28;;;;;;;19.17;4.78;;;;;;;1.51;64.05;100832.88;4948959;28;20048;-62
2023/03/14 01:37:00;;;;;;;16.48;4.90;;;;;;;1.66;63.93;100835.88;4949673;27;20498;-64
2023/03/14 01:39:31;;;;;;;17.05;5.05;;;;;;;1.85;63.83;100836.41;4941286;28;20209;-65
2023/03/14 01:42:03;;;;;;;12.80;4.85;;;;;;;1.93;63.72;100845.22;4954122;27;20111;-66
2023/03/14 01:44:54;;;;;;;15.40;5.15;;;;;;;1.95;63.30;100838.41;4955778;27;20062;-65
2023/03/14 01:47:26;;;;;;;15.43;5.45;;;;;;;1.96;63.01;100855.63;4938242;27;20505;-64
2023/03/14 01:50:03;;;;;;;11.35;4.78;;;;;;;2.39;62.82;100846.47;4964123;27;20050;-65
2023/03/14 01:52:41;;;;;;;15.07;5.10;;;;;;;2.50;62.54;100851.91;4942290;27;20054;-66
2023/03/14 01:55:17;;;;;;;10.60;4.75;;;;;;;2.54;61.01;100854.59;4938092;28;20055;-64
2023/03/14 01:57:54;;;;;;;12.57;5.10;;;;;;;2.67;61.42;100852.31;4947474;28;20047;-63
2023/03/14 02:00:27;;;;;;;14.55;4.70;;;;;;;2.82;60.85;100857.88;4936395;28;20043;-62
2023/03/14 02:03:03;;;;;;;13.82;4.80;;;;;;;3.09;59.29;100851.63;4947916;28;20043;-63
2023/03/14 02:05:40;;;;;;;14.23;5.32;;;;;;;3.01;57.58;100854.91;4935648;28;20063;-65
2023/03/14 02:08:15;;;;;;;9.15;3.78;;;;;;;3.05;58.40;100855.00;4937651;28;20572;-64
2023/03/14 02:10:49;;;;;;;10.15;3.83;;;;;;;2.98;57.94;100859.13;4946256;27;20059;-64
2023/03/14 02:13:22;;;;;;;14.75;4.22;;;;;;;2.87;56.84;100860.56;4947575;27;20079;-63
2023/03/14 02:15:54;;;;;;;12.10;4.40;;;;;;;2.72;56.52;100876.53;4948725;28;20043;-64
2023/03/14 02:18:27;;;;;;;9.43;4.38;;;;;;;2.68;56.79;100885.06;4948574;28;20434;-63
2023/03/14 02:21:06;;;;;;;13.35;4.60;;;;;;;2.81;56.73;100881.94;4948473;28;20480;-65
2023/03/14 02:23:46;;;;;;;13.15;4.40;;;;;;;2.91;56.99;100883.91;4937593;27;20059;-63
2023/03/14 02:26:22;;;;;;;17.50;4.28;;;;;;;2.83;56.30;100890.59;4937965;28;20059;-63
2023/03/14 02:28:56;;;;;;;11.50;3.88;;;;;;;2.91;56.81;100894.22;4937655;28;20051;-63
2023/03/14 02:31:28;;;;;;;14.70;4.72;;;;;;;2.90;56.66;100887.34;4948131;28;20101;-66
2023/03/14 02:34:01;;;;;;;12.65;5.32;;;;;;;3.27;57.12;100882.16;4947842;28;20100;-64
2023/03/14 02:36:33;;;;;;;13.95;4.82;;;;;;;3.49;56.33;100881.81;4937221;28;20054;-65
2023/03/14 02:39:13;;;;;;;16.40;5.00;;;;;;;3.41;55.77;100881.66;4945987;28;20055;-65
2023/03/14 02:41:48;;;;;;;14.13;4.53;;;;;;;3.30;55.93;100871.94;4934412;28;20371;-66
2023/03/14 02:44:22;;;;;;;11.27;4.03;;;;;;;3.24;54.88;100885.56;4956703;28;20141;-63
2023/03/14 02:46:54;;;;;;;12.65;4.70;;;;;;;3.26;54.50;100891.63;4951651;28;20434;-64
2023/03/14 02:49:28;;;;;;;9.85;3.80;;;;;;;3.45;53.64;100883.47;4951999;28;20059;-65
2023/03/14 02:52:00;;;;;;;16.73;4.45;;;;;;;3.48;53.01;100872.34;4950695;28;20178;-64
2023/03/14 02:54:31;;;;;;;10.10;4.22;;;;;;;3.52;51.80;100873.25;4955428;28;20051;-64
2023/03/14 02:57:04;;;;;;;9.50;4.05;;;;;;;2.88;53.32;100780.59;4950905;28;20073;-65
2023/03/14 02:59:38;;;;;;;8.05;4.13;;;;;;;3.37;52.70;100854.03;4950890;28;20051;-66
2023/03/14 03:02:09;;;;;;;10.68;3.97;;;;;;;3.14;52.37;100860.34;4950163;28;20527;-66
2023/03/14 03:04:41;;;;;;;9.80;3.83;;;;;;;3.08;52.42;100870.56;4944749;28;20110;-66
2023/03/14 03:07:13;;;;;;;11.32;4.00;;;;;;;2.98;53.18;100870.31;4947913;28;20048;-65
2023/03/14 03:09:45;;;;;;;11.55;3.88;;;;;;;2.77;53.90;100885.25;4947251;28;20170;-66
2023/03/14 03:12:17;;;;;;;10.13;4.07;;;;;;;2.71;54.75;100888.56;4951199;27;20115;-65
2023/03/14 03:14:50;;;;;;;12.15;4.00;;;;;;;2.81;55.26;100887.09;4951962;27;20076;-63
2023/03/14 03:17:22;;;;;;;9.20;3.63;;;;;;;2.72;55.08;100892.03;4943353;27;20060;-66
2023/03/14 03:19:53;;;;;;;10.73;4.38;;;;;;;2.75;55.26;100900.72;4952374;27;20832;-64
2023/03/14 03:22:25;;;;;;;10.95;3.88;;;;;;;2.86;55.57;100895.84;4952531;27;20047;-65
2023/03/14 03:24:57;;;;;;;9.15;3.83;;;;;;;2.34;55.62;100781.00;4951917;27;20043;-62
2023/03/14 03:27:28;;;;;;;14.10;4.10;;;;;;;3.15;54.61;100893.09;4951540;27;20050;-67
2023/03/14 03:30:01;;;;;;;13.40;3.67;;;;;;;2.89;53.00;100864.06;4951859;27;20429;-65
2023/03/14 03:32:33;;;;;;;14.75;4.35;;;;;;;2.91;53.37;100889.06;4940591;27;20054;-65
2023/03/14 03:35:05;;;;;;;11.07;4.25;;;;;;;2.98;54.06;100890.97;4950858;28;20142;-65
2023/03/14 03:37:38;;;;;;;10.68;3.70;;;;;;;2.99;55.02;100897.88;4950946;28;20585;-65
2023/03/14 03:40:11;;;;;;;9.93;3.58;;;;;;;3.29;54.90;100902.03;4953130;27;20104;-65
2023/03/14 03:42:43;;;;;;;16.20;3.85;;;;;;;3.34;54.04;100892.66;4928083;28;20043;-66
2023/03/14 03:45:16;;;;;;;10.32;3.42;;;;;;;3.09;52.79;100888.66;4948628;28;20067;-65
2023/03/14 03:47:48;;;;;;;10.60;4.22;;;;;;;3.13;53.71;100902.53;4948511;27;20075;-63
2023/03/14 03:50:20;;;;;;;9.30;3.95;;;;;;;3.22;51.08;100900.13;4948568;28;20048;-64
2023/03/14 03:52:52;;;;;;;9.55;3.75;;;;;;;3.00;51.13;100889.31;4939912;27;20850;-66
2023/03/14 03:55:25;;;;;;;12.00;4.55;;;;;;;2.96;53.19;100892.63;4952203;28;20146;-67
2023/03/14 03:57:57;;;;;;;12.55;4.28;;;;;;;3.03;54.18;100894.53;4951264;27;20142;-62
2023/03/14 04:00:31;;;;;;;8.25;3.72;;;;;;;2.98;53.37;100898.72;4949846;27;20048;-64
2023/03/14 04:03:02;;;;;;;11.10;3.72;;;;;;;2.89;53.39;100893.31;4938194;27;20075;-64
2023/03/14 04:05:34;;;;;;;12.75;3.75;;;;;;;2.92;53.70;100896.00;4950768;28;20506;-66
2023/03/14 04:08:06;;;;;;;10.35;4.10;;;;;;;2.93;53.90;100897.72;4949918;28;20047;-63
2023/03/14 04:10:38;;;;;;;11.05;4.07;;;;;;;3.06;54.21;100898.03;4950429;28;20120;-65
2023/03/14 04:13:10;;;;;;;9.75;4.50;;;;;;;3.00;52.74;100904.78;4950925;28;20047;-66
2023/03/14 04:15:43;;;;;;;12.90;3.78;;;;;;;3.13;54.00;100907.69;4944110;27;20132;-63
2023/03/14 04:18:15;;;;;;;10.80;4.10;;;;;;;3.28;53.73;100902.88;4951017;27;20131;-63
2023/03/14 04:20:47;;;;;;;10.15;4.15;;;;;;;3.38;54.49;100902.25;4950793;27;20047;-66
2023/03/14 04:23:18;;;;;;;12.95;3.88;;;;;;;3.38;53.17;100904.84;4949439;27;20054;-66
2023/03/14 04:25:51;;;;;;;15.35;4.35;;;;;;;3.60;53.19;100907.91;4949348;28;20060;-64
2023/03/14 04:28:22;;;;;;;11.85;4.63;;;;;;;3.48;52.53;100907.63;4951465;27;20826;-65
2023/03/14 04:30:56;;;;;;;9.45;3.75;;;;;;;3.12;52.11;100882.69;4951113;27;20139;-65
2023/03/14 04:33:27;;;;;;;10.48;3.88;;;;;;;3.20;52.25;100922.50;4949610;28;20737;-64
2023/03/14 04:35:59;;;;;;;11.60;3.67;;;;;;;3.12;52.88;100921.41;4950078;27;20043;-64
2023/03/14 04:38:30;;;;;;;9.45;3.78;;;;;;;3.16;53.35;100936.16;4964297;27;20052;-64
2023/03/14 04:41:02;;;;;;;13.18;4.40;;;;;;;3.05;53.19;100922.13;4968701;27;20059;-66
2023/03/14 04:43:34;;;;;;;12.27;3.55;;;;;;;3.10;52.59;100925.69;4965589;27;20512;-65
2023/03/14 04:46:08;;;;;;;13.45;4.65;;;;;;;3.10;53.20;100930.84;4966278;27;20055;-64
2023/03/14 04:48:39;;;;;;;16.38;4.40;;;;;;;3.17;53.13;100932.72;4965127;27;20070;-65
2023/03/14 04:51:11;;;;;;;12.25;3.45;;;;;;;3.16;52.49;100928.41;4960324;27;20094;-62
2023/03/14 04:53:42;;;;;;;9.68;4.15;;;;;;;3.16;52.96;100938.75;4965147;27;20055;-65
2023/03/14 04:56:14;;;;;;;12.93;3.72;;;;;;;3.23;50.80;100940.63;4965371;27;20054;-65
2023/03/14 04:58:45;;;;;;;9.57;4.90;;;;;;;3.52;51.41;100935.28;4965201;27;20511;-65
2023/03/14 05:01:19;;;;;;;8.40;3.85;;;;;;;3.70;51.31;100948.63;4965384;27;20051;-64
2023/03/14 05:03:50;;;;;;;11.27;3.95;;;;;;;3.53;51.05;100943.06;4954402;27;20052;-63
2023/03/14 05:06:22;;;;;;;10.13;4.18;;;;;;;3.57;50.25;100939.72;4951621;28;20057;-63
2023/03/14 05:08:53;;;;;;;10.52;4.20;;;;;;;3.76;50.51;100956.50;4949414;28;20050;-65
2023/03/14 05:11:25;;;;;;;9.25;3.75;;;;;;;3.80;51.05;100962.63;4949514;28;20786;-65
2023/03/14 05:13:57;;;;;;;9.82;3.78;;;;;;;4.05;51.26;100954.56;4949843;28;20051;-62
2023/03/14 05:16:30;;;;;;;13.32;3.90;;;;;;;4.19;51.51;100960.00;4949178;28;20063;-62
2023/03/14 05:19:02;;;;;;;10.65;3.75;;;;;;;4.13;51.19;100909.88;4935862;28;20694;-63
2023/03/14 05:21:34;;;;;;;11.18;3.90;;;;;;;4.47;49.66;100963.19;4949287;27;20142;-63
2023/03/14 05:24:06;;;;;;;11.57;4.05;;;;;;;4.56;49.74;100968.53;4949217;27;20555;-64
2023/03/14 05:26:39;;;;;;;8.73;3.83;;;;;;;4.47;49.15;100973.53;4949072;27;20051;-65
2023/03/14 05:29:10;;;;;;;13.68;4.50;;;;;;;4.44;49.54;100978.63;4948377;27;20106;-62
2023/03/14 05:31:44;;;;;;;12.65;4.57;;;;;;;4.23;48.65;100977.34;4951069;27;20057;-62
2023/03/14 05:34:15;;;;;;;16.75;4.70;;;;;;;4.14;48.43;100978.88;4966116;27;20469;-65
2023/03/14 05:36:47;;;;;;;9.00;3.70;;;;;;;4.01;47.94;100993.25;4967448;27;20047;-63
2023/03/14 05:39:18;;;;;;;8.57;3.70;;;;;;;3.87;48.61;101006.75;4965854;27;20047;-63
2023/03/14 05:41:50;;;;;;;15.77;4.57;;;;;;;3.56;48.50;101009.44;4964280;27;21792;-63
2023/03/14 05:44:22;;;;;;;12.30;4.57;;;;;;;3.59;49.18;101019.84;4965490;27;21211;-65
2023/03/14 05:46:56;;;;;;;14.25;3.72;;;;;;;3.32;48.59;101000.28;4964567;27;20047;-65
2023/03/14 05:49:28;;;;;;;8.40;4.10;;;;;;;3.35;49.00;101027.91;4964203;27;20047;-62
2023/03/14 05:51:59;;;;;;;10.40;3.75;;;;;;;3.17;49.14;101021.44;4965195;27;20051;-64
2023/03/14 05:54:31;;;;;;;12.80;3.92;;;;;;;3.05;49.13;101030.56;4947810;27;20116;-66
2023/03/14 05:57:02;;;;;;;17.15;4.22;;;;;;;2.83;48.80;101024.81;4949071;28;20100;-64
2023/03/14 05:59:34;;;;;;;9.70;3.58;;;;;;;2.59;48.84;101033.59;4948597;27;20165;-65
2023/03/14 06:02:07;;;;;;;9.30;4.00;;;;;;;2.54;50.18;101042.91;4948825;27;20386;-64
2023/03/14 06:04:38;;;;;;;11.40;4.30;;;;;;;2.61;49.48;101043.13;4948821;27;20051;-65
2023/03/14 06:07:10;;;;;;;7.25;3.90;;;;;;;2.65;49.61;101045.81;4948011;28;20136;-64
2023/03/14 06:09:42;;;;;;;13.10;4.53;;;;;;;2.71;50.20;101055.44;4940422;28;20152;-65
2023/03/14 06:12:13;;;;;;;11.38;4.63;;;;;;;2.51;49.31;101058.31;4948553;28;20047;-65
2023/03/14 06:14:44;;;;;;;11.68;4.00;;;;;;;2.38;50.38;101064.81;4948503;28;20048;-65
2023/03/14 06:17:17;;;;;;;14.25;4.32;;;;;;;2.30;50.90;101068.03;4948284;28;20059;-64
2023/03/14 06:19:49;;;;;;;21.13;4.70;;;;;;;2.01;51.54;101029.31;4948301;27;20052;-65
2023/03/14 06:22:21;;;;;;;10.70;4.50;;;;;;;2.24;51.75;101070.41;4946389;28;20150;-64
2023/03/14 06:24:52;;;;;;;16.30;3.90;;;;;;;2.15;52.03;101064.16;4948806;28;20063;-64
2023/03/14 06:27:24;;;;;;;9.35;4.28;;;;;;;2.00;51.29;101067.94;4948775;28;20043;-66
2023/03/14 06:29:56;;;;;;;9.65;4.07;;;;;;;1.88;51.26;101068.44;4959559;27;20478;-63
2023/03/14 06:32:30;;;;;;;15.27;4.57;;;;;;;1.80;51.10;101075.03;4956698;27;20067;-64
2023/03/14 06:35:02;;;;;;;13.18;4.32;;;;;;;1.94;51.90;101084.09;4938367;27;20168;-64
2023/03/14 06:37:34;;;;;;;10.18;4.70;;;;;;;2.07;52.30;101085.34;4947741;28;20458;-66
2023/03/14 06:40:08;;;;;;;11.75;4.93;;;;;;;1.97;51.47;101089.31;4948581;28;20540;-65
2023/03/14 06:42:40;;;;;;;12.30;5.00;;;;;;;1.96;52.26;101092.75;4948182;28;20055;-64
2023/03/14 06:45:12;;;;;;;11.10;5.53;;;;;;;1.97;51.66;101101.34;4942244;28;20052;-65
2023/03/14 06:47:48;;;;;;;14.00;5.78;;;;;;;1.95;51.84;101093.59;4948378;28;20127;-66
2023/03/14 06:50:19;;;;;;;15.13;5.43;;;;;;;1.99;51.49;101098.00;4947555;28;20054;-65
2023/03/14 06:52:51;;;;;;;12.27;5.38;;;;;;;1.89;51.86;101101.97;4945066;28;20060;-65
2023/03/14 06:55:22;;;;;;;14.10;4.95;;;;;;;1.92;51.28;101093.47;4948921;28;20059;-64
2023/03/14 06:57:54;;;;;;;13.02;5.43;;;;;;;1.91;50.97;101104.63;4948601;28;20138;-65
2023/03/14 07:00:32;;;;;;;15.40;6.05;;;;;;;1.88;50.79;101099.38;4948365;28;20048;-63
2023/03/14 07:03:09;;;;;;;16.38;6.50;;;;;;;1.80;50.91;101105.94;4937202;28;20073;-63
2023/03/14 07:05:42;;;;;;;14.40;5.95;;;;;;;1.74;49.80;101111.78;4937727;28;21187;-62
2023/03/14 07:08:12;;;;;;;13.60;5.50;;;;;;;1.75;50.06;101112.66;4951911;28;20055;-65
2023/03/14 07:10:42;;;;;;;15.38;5.45;;;;;;;1.70;50.22;101110.81;4946015;28;20051;-65
2023/03/14 07:13:13;;;;;;;16.33;5.88;;;;;;;1.58;50.10;101094.09;4953622;28;20047;-64
2023/03/14 07:15:44;;;;;;;13.38;6.18;;;;;;;1.71;50.30;101117.72;4947311;28;20081;-65
2023/03/14 07:18:16;;;;;;;12.60;5.38;;;;;;;1.58;50.79;101115.56;4947115;28;20381;-63
2023/03/14 07:20:47;;;;;;;14.38;5.63;;;;;;;1.59;51.86;101127.59;4963165;28;20047;-64
2023/03/14 07:23:20;;;;;;;15.90;5.47;;;;;;;1.57;51.78;101134.41;4950258;28;20141;-64
2023/03/14 07:25:50;;;;;;;15.57;5.90;;;;;;;1.50;52.10;101133.34;4960947;28;20124;-63
2023/03/14 07:28:22;;;;;;;12.13;6.05;;;;;;;1.42;52.21;101123.56;4969455;28;20743;-63
2023/03/14 07:30:53;;;;;;;14.93;6.22;;;;;;;1.36;52.33;101128.53;4963577;28;20138;-64
2023/03/14 07:33:25;;;;;;;13.57;5.97;;;;;;;1.20;52.76;101128.00;4950829;28;20071;-64
2023/03/14 07:35:56;;;;;;;13.65;5.55;;;;;;;1.15;52.21;101144.97;4947871;28;20047;-64
2023/03/14 07:38:26;;;;;;;15.60;6.32;;;;;;;1.03;52.37;101150.56;4958928;28;20645;-64
2023/03/14 07:41:01;;;;;;;18.77;6.07;;;;;;;0.95;51.98;101161.38;4950469;28;20496;-63
2023/03/14 07:43:32;;;;;;;17.20;5.80;;;;;;;0.91;51.93;101169.81;4939145;28;20492;-63
2023/03/14 07:46:02;;;;;;;14.45;5.72;;;;;;;0.84;52.61;101174.72;4944731;28;20151;-64
2023/03/14 07:48:35;;;;;;;14.30;5.90;;;;;;;0.86;53.75;101188.53;4946959;28;20053;-64
2023/03/14 07:51:05;;;;;;;13.55;5.45;;;;;;;0.83;53.66;101190.97;4963021;28;20485;-63
2023/03/14 07:53:36;;;;;;;15.23;6.22;;;;;;;0.80;54.21;101188.31;4949858;28;20051;-64
2023/03/14 07:56:08;;;;;;;16.35;5.60;;;;;;;0.75;54.07;101192.41;4958392;28;20043;-64
2023/03/14 07:58:39;;;;;;;14.73;6.05;;;;;;;0.68;54.75;101192.97;4948847;28;20402;-63
2023/03/14 08:01:10;;;;;;;16.30;6.93;;;;;;;0.59;54.54;101202.91;4950684;28;20500;-64
2023/03/14 08:03:42;;;;;;;14.35;6.28;;;;;;;0.48;54.44;101204.19;4943885;28;20040;-63
2023/03/14 08:06:19;;;;;;;11.90;5.55;;;;;;;0.42;54.45;101213.41;4950255;28;20154;-64
2023/03/14 08:08:51;;;;;;;18.60;6.35;;;;;;;0.35;54.89;101219.13;4948631;28;20048;-63
2023/03/14 08:11:25;;;;;;;17.80;6.18;;;;;;;0.28;54.86;101232.53;4950417;27;20057;-64
2023/03/14 08:13:56;;;;;;;15.55;5.95;;;;;;;0.18;54.89;101225.28;4949896;27;20057;-64
2023/03/14 08:16:27;;;;;;;17.40;6.15;;;;;;;0.09;55.04;101235.16;4948595;28;20048;-64
2023/03/14 08:18:59;;;;;;;16.60;6.15;;;;;;;0.02;55.35;101248.56;4949685;28;20150;-63
2023/03/14 08:21:30;;;;;;;14.77;6.63;;;;;;;-0.31;55.50;101207.78;4946541;27;20170;-63
2023/03/14 08:24:01;;;;;;;16.00;6.38;;;;;;;-0.11;55.64;101248.03;4955729;28;20068;-63
2023/03/14 08:26:31;;;;;;;14.82;6.38;;;;;;;-0.57;55.81;101188.72;4952475;28;20141;-64
2023/03/14 08:29:04;;;;;;;13.93;6.05;;;;;;;-0.18;56.12;101265.69;4950094;28;20105;-63
2023/03/14 08:31:37;;;;;;;13.70;6.28;;;;;;;-0.22;56.60;101274.97;4949793;28;20056;-63
2023/03/14 08:34:10;;;;;;;20.35;6.95;;;;;;;-0.96;56.42;101157.91;4950179;28;20047;-64
2023/03/14 08:36:40;;;;;;;12.45;5.80;;;;;;;-0.38;57.43;101277.66;4945997;27;20592;-63
2023/03/14 08:39:12;;;;;;;17.10;6.47;;;;;;;-0.41;57.72;101282.69;4940487;28;20411;-65
2023/03/14 08:41:44;;;;;;;13.27;5.97;;;;;;;-0.52;57.71;101285.66;4946340;27;20047;-64
2023/03/14 08:44:14;;;;;;;20.10;6.72;;;;;;;-0.55;58.15;101280.38;4947950;27;20058;-63
2023/03/14 08:46:49;;;;;;;14.10;6.75;;;;;;;-0.53;58.47;101283.88;4948809;27;20047;-63
2023/03/14 08:49:24;;;;;;;17.55;7.43;;;;;;;-0.77;59.58;101244.28;4937467;28;20089;-64
2023/03/14 08:51:54;;;;;;;18.67;7.82;;;;;;;-0.63;59.27;101281.69;4947905;27;20763;-64
2023/03/14 08:54:25;;;;;;;30.73;11.50;;;;;;;-0.67;59.79;101290.09;4948159;27;20054;-64
2023/03/14 08:56:55;;;;;;;31.60;11.02;;;;;;;-0.64;59.93;101289.34;4948571;27;20058;-65
2023/03/14 08:59:26;;;;;;;18.08;8.23;;;;;;;-0.72;59.05;101302.72;4947020;27;20044;-63
2023/03/14 09:01:57;;;;;;;18.90;7.80;;;;;;;-0.74;59.20;101303.44;4946875;27;20116;-64
2023/03/14 09:04:29;;;;;;;18.10;7.78;;;;;;;-0.80;59.14;101313.41;4948267;27;20112;-65
2023/03/14 09:07:03;;;;;;;17.95;8.30;;;;;;;-0.91;59.55;101311.22;4948088;27;20051;-64
2023/03/14 09:09:33;;;;;;;27.50;12.80;;;;;;;-0.89;60.13;101325.03;4935382;27;20071;-65
2023/03/14 09:12:06;;;;;;;33.83;12.38;;;;;;;-1.03;59.68;101315.78;4947539;27;20108;-65
2023/03/14 09:14:41;;;;;;;25.50;10.93;;;;;;;-1.06;60.06;101331.03;4948014;27;20062;-65
2023/03/14 09:17:14;;;;;;;18.92;8.50;;;;;;;-1.01;59.41;101339.84;4937011;27;20790;-63
2023/03/14 09:19:47;;;;;;;19.20;9.10;;;;;;;-1.01;59.35;101339.84;4947517;27;20052;-63
2023/03/14 09:22:20;;;;;;;26.23;11.85;;;;;;;-0.99;58.76;101335.66;4947922;27;20099;-63
2023/03/14 09:24:51;;;;;;;20.77;10.30;;;;;;;-1.00;58.98;101331.34;4943202;27;20114;-63
2023/03/14 09:27:22;;;;;;;23.67;10.20;;;;;;;-0.94;59.09;101352.16;4946581;27;20955;-65
2023/03/14 09:29:58;;;;;;;19.88;9.52;;;;;;;-1.01;58.68;101350.09;4947851;27;20047;-62
2023/03/14 09:32:28;;;;;;;19.77;8.57;;;;;;;-1.02;58.57;101362.84;4946945;27;20048;-64
2023/03/14 09:35:01;;;;;;;20.75;8.02;;;;;;;-1.07;58.93;101344.69;4946827;27;20097;-62
2023/03/14 09:37:34;;;;;;;17.55;8.15;;;;;;;-0.93;58.70;101374.41;4935243;27;20076;-63
2023/03/14 09:40:10;;;;;;;15.05;7.95;;;;;;;-0.98;58.65;101381.00;4946751;27;20071;-64
2023/03/14 09:42:45;;;;;;;20.30;9.00;;;;;;;-1.03;58.62;101387.63;4938088;27;20241;-62
2023/03/14 09:45:20;;;;;;;23.58;9.38;;;;;;;-1.09;58.91;101377.06;4945159;27;20146;-64
2023/03/14 09:47:55;;;;;;;19.02;8.93;;;;;;;-1.04;58.99;101396.13;4936165;27;20674;-66
2023/03/14 09:50:40;;;;;;;25.35;8.25;;;;;;;-1.12;58.52;101382.06;4946180;27;20048;-63
2023/03/14 09:53:18;;;;;;;23.00;8.02;;;;;;;-1.01;59.16;101397.97;4931819;27;20521;-62
2023/03/14 09:55:53;;;;;;;19.95;9.25;;;;;;;-1.11;58.32;101394.06;4938774;27;20132;-63
2023/03/14 09:58:25;;;;;;;22.92;9.68;;;;;;;-1.11;58.37;101420.59;4946450;27;20061;-64
2023/03/14 10:00:59;;;;;;;27.02;10.35;;;;;;;-1.15;58.67;101412.66;4942977;27;20468;-63
2023/03/14 10:03:35;;;;;;;25.33;10.63;;;;;;;-1.41;58.12;101409.69;4935337;27;20116;-65
2023/03/14 10:06:17;;;;;;;28.05;9.98;;;;;;;-1.36;59.05;101397.97;4945543;27;20065;-63
2023/03/14 10:08:48;;;;;;;27.33;11.80;;;;;;;-1.11;58.38;101440.22;4933844;27;20085;-64
2023/03/14 10:11:19;;;;;;;27.50;11.25;;;;;;;-1.34;58.59;101404.06;4941576;27;20047;-62
2023/03/14 10:13:52;;;;;;;29.25;11.18;;;;;;;-1.13;58.35;101444.41;4944813;27;20056;-63
2023/03/14 10:16:31;;;;;;;25.02;11.93;;;;;;;-1.45;58.38;101397.50;4946476;27;20101;-64
2023/03/14 10:19:11;;;;;;;25.60;10.80;;;;;;;-1.22;58.06;101451.63;4936758;27;20051;-63
2023/03/14 10:21:44;;;;;;;22.08;9.50;;;;;;;-1.25;58.33;101454.03;4935292;27;20073;-63
2023/03/14 10:24:24;;;;;;;25.25;9.02;;;;;;;-1.15;58.61;101458.81;4941484;28;20171;-64
2023/03/14 10:27:01;;;;;;;21.50;10.32;;;;;;;-1.12;58.79;101464.13;4934981;27;20051;-62
2023/03/14 10:29:35;;;;;;;21.17;8.27;;;;;;;-1.09;58.40;101460.03;4937862;27;20053;-62
2023/03/14 10:32:08;;;;;;;17.48;8.40;;;;;;;-1.13;58.86;101467.47;4945930;27;20047;-66
2023/03/14 10:34:43;;;;;;;17.52;8.50;;;;;;;-1.09;58.80;101474.53;4945171;27;20051;-62
2023/03/14 10:37:25;;;;;;;26.27;9.02;;;;;;;-1.12;58.46;101482.09;4936001;27;20052;-64
2023/03/14 10:40:05;;;;;;;20.48;7.82;;;;;;;-1.19;58.54;101483.44;4934262;27;20565;-65
2023/03/14 10:42:44;;;;;;;38.05;7.55;;;;;;;-1.22;58.36;101488.44;4934878;27;20058;-66
2023/03/14 10:45:32;;;;;;;19.08;7.28;;;;;;;-1.18;57.77;101486.88;4935389;28;20058;-65
2023/03/14 10:48:20;;;;;;;16.90;7.38;;;;;;;-1.24;58.02;101476.34;4933513;28;20051;-64
2023/03/14 10:51:01;;;;;;;15.55;7.43;;;;;;;-1.75;58.10;101392.59;4931179;28;20056;-65
2023/03/14 10:53:47;;;;;;;23.27;7.70;;;;;;;-1.61;58.27;101415.50;4934953;28;20057;-64
2023/03/14 10:56:21;;;;;;;19.08;7.65;;;;;;;-1.57;58.42;101425.09;4934024;28;20139;-65
2023/03/14 10:59:01;;;;;;;17.80;7.47;;;;;;;-1.11;58.42;101512.06;4930910;28;20053;-63
2023/03/14 11:02:28;;;;;;;16.77;7.22;;;;;;;-1.09;58.73;101520.72;4945554;28;20044;-63
2023/03/14 11:05:21;;;;;;;17.27;7.45;;;;;;;-1.04;58.93;101509.00;4933532;28;20043;-65
2023/03/14 11:07:55;;;;;;;19.58;7.70;;;;;;;-1.05;58.38;101512.34;4937067;28;20049;-63
2023/03/14 11:10:34;;;;;;;15.57;7.22;;;;;;;-1.36;57.75;101464.63;4944254;28;20130;-64
2023/03/14 11:13:29;;;;;;;16.58;7.30;;;;;;;-1.04;58.27;101519.25;4934794;28;20039;-63
2023/03/14 11:16:24;;;;;;;22.02;8.10;;;;;;;-1.07;58.51;101529.38;4933117;28;20145;-66
2023/03/14 11:19:13;;;;;;;18.13;8.32;;;;;;;-1.14;58.24;101527.28;4935091;28;20075;-66
2023/03/14 11:21:54;;;;;;;21.67;7.65;;;;;;;-1.40;57.73;101503.75;4933135;28;20599;-65
2023/03/14 11:24:47;;;;;;;23.00;8.25;;;;;;;-1.74;58.32;101445.59;4934460;28;20051;-66
2023/03/14 11:27:27;;;;;;;18.25;7.05;;;;;;;-1.33;58.45;101521.19;4933912;28;20055;-65
2023/03/14 11:30:18;;;;;;;20.77;7.80;;;;;;;-1.66;58.22;101483.56;4929708;28;20068;-63
2023/03/14 11:33:01;;;;;;;20.00;6.40;;;;;;;-1.23;58.50;101537.94;4937009;27;20105;-62
2023/03/14 11:35:39;;;;;;;18.25;6.50;;;;;;;-1.65;58.60;101490.44;4937296;27;20138;-64
2023/03/14 11:38:17;;;;;;;13.10;6.57;;;;;;;-1.23;58.94;101557.59;4947075;27;20083;-61
2023/03/14 11:41:23;;;;;;;16.45;7.28;;;;;;;-1.32;58.91;101547.75;4948330;27;20139;-63
2023/03/14 11:43:58;;;;;;;22.38;7.45;;;;;;;-1.34;59.28;101552.78;4934733;27;20116;-64
2023/03/14 11:46:33;;;;;;;17.77;6.68;;;;;;;-1.41;59.13;101544.69;4944864;28;20048;-65
2023/03/14 11:49:22;;;;;;;20.02;7.78;;;;;;;-1.34;59.52;101565.59;4938232;27;20054;-63
2023/03/14 11:52:01;;;;;;;15.52;6.35;;;;;;;-1.90;60.03;101448.16;4926942;27;20067;-63
2023/03/14 11:54:46;;;;;;;18.98;6.85;;;;;;;-1.37;59.88;101555.19;4938847;27;20051;-64